createdAt,value
2018-09-23T00:02:22.418Z,11.70
2018-09-23T00:04:51.400Z,12.47
2018-09-23T00:07:20.607Z,13.70
2018-09-23T00:09:49.563Z,14.80
2018-09-23T00:12:19.714Z,10.90
2018-09-23T00:14:48.654Z,12.67
2018-09-23T00:17:17.617Z,15.03
2018-09-23T00:19:46.707Z,12.07
2018-09-23T00:22:15.739Z,11.23
2018-09-23T00:24:44.712Z,16.77
2018-09-23T00:27:13.707Z,13.53
2018-09-23T00:29:47.989Z,13.07
2018-09-23T00:32:17.274Z,15.73
2018-09-23T00:34:46.350Z,11.83
2018-09-23T00:37:15.284Z,13.97
2018-09-23T00:39:44.259Z,15.47
2018-09-23T00:42:13.466Z,15.63
2018-09-23T00:44:42.533Z,12.90
2018-09-23T00:47:11.992Z,13.23
2018-09-23T00:49:40.942Z,14.97
2018-09-23T00:52:10.308Z,12.97
2018-09-23T00:54:39.457Z,16.67
2018-09-23T00:57:08.411Z,14.37
2018-09-23T01:04:08.294Z,16.07
2018-09-23T01:06:37.269Z,15.40
2018-09-23T01:09:07.912Z,15.60
2018-09-23T01:11:37.145Z,16.30
2018-09-23T01:14:06.164Z,17.20
2018-09-23T01:16:35.542Z,13.43
2018-09-23T01:19:05.115Z,15.90
2018-09-23T01:21:34.687Z,18.97
2018-09-23T01:24:03.723Z,15.47
2018-09-23T01:26:32.867Z,17.17
2018-09-23T01:29:02.330Z,15.17
2018-09-23T01:31:31.922Z,17.10
2018-09-23T01:34:01.614Z,15.57
2018-09-23T01:36:30.804Z,15.17
2018-09-23T01:39:00.423Z,17.20
2018-09-23T01:41:30.111Z,16.87
2018-09-23T01:43:59.100Z,19.33
2018-09-23T01:46:28.771Z,15.83
2018-09-23T01:48:58.277Z,18.30
2018-09-23T01:51:28.425Z,19.63
2018-09-23T01:53:57.661Z,16.70
2018-09-23T01:56:26.683Z,18.90
2018-09-23T01:58:56.328Z,16.67
2018-09-23T02:01:25.451Z,20.23
2018-09-23T02:03:54.551Z,18.03
2018-09-23T02:06:23.755Z,16.93
2018-09-23T02:08:52.844Z,19.27
2018-09-23T02:11:21.937Z,17.13
2018-09-23T02:13:51.775Z,18.23
2018-09-23T02:16:20.807Z,17.87
2018-09-23T02:18:49.867Z,16.83
2018-09-23T02:21:19.143Z,22.13
2018-09-23T02:23:48.304Z,20.07
2018-09-23T02:26:17.597Z,18.30
2018-09-23T02:28:47.077Z,17.60
2018-09-23T02:31:16.181Z,19.87
2018-09-23T02:33:45.350Z,18.97
2018-09-23T02:36:14.924Z,19.43
2018-09-23T02:38:44.822Z,20.17
2018-09-23T02:41:14.794Z,18.97
2018-09-23T02:43:44.460Z,20.63
2018-09-23T02:46:13.898Z,21.27
2018-09-23T02:48:42.873Z,18.90
2018-09-23T02:51:12.336Z,22.57
2018-09-23T02:53:41.465Z,20.30
2018-09-23T02:56:10.589Z,19.80
2018-09-23T02:58:39.608Z,21.60
2018-09-23T03:01:08.827Z,19.87
2018-09-23T03:03:39.349Z,19.07
2018-09-23T03:06:08.400Z,17.90
2018-09-23T03:08:37.430Z,20.27
2018-09-23T03:11:07.250Z,21.00
2018-09-23T03:13:36.694Z,19.43
2018-09-23T03:16:06.616Z,18.07
2018-09-23T03:18:39.105Z,19.43
2018-09-23T03:21:08.886Z,17.60
2018-09-23T03:23:37.850Z,19.90
2018-09-23T03:26:08.229Z,17.67
2018-09-23T03:28:37.944Z,18.43
2018-09-23T03:31:07.198Z,20.00
2018-09-23T03:33:36.294Z,19.43
2018-09-23T03:36:05.403Z,20.13
2018-09-23T03:38:34.683Z,20.67
2018-09-23T03:41:03.985Z,21.53
2018-09-23T03:43:33.416Z,20.87
2018-09-23T03:46:02.625Z,20.50
2018-09-23T03:48:31.769Z,22.50
2018-09-23T03:51:00.868Z,20.33
2018-09-23T03:53:36.295Z,21.57
2018-09-23T03:56:05.339Z,21.27
2018-09-23T03:58:34.451Z,22.90
2018-09-23T04:01:03.502Z,18.67
2018-09-23T04:03:32.439Z,19.23
2018-09-23T04:06:01.499Z,20.23
2018-09-23T04:08:31.180Z,25.10
2018-09-23T04:11:00.388Z,22.87
2018-09-23T04:13:29.991Z,21.57
2018-09-23T04:15:59.109Z,22.67
2018-09-23T04:18:28.194Z,18.23
2018-09-23T04:20:58.163Z,23.57
2018-09-23T04:23:27.813Z,19.87
2018-09-23T04:25:57.255Z,19.83
2018-09-23T04:28:26.614Z,21.17
2018-09-23T04:30:55.791Z,22.23
2018-09-23T04:33:25.043Z,23.20
2018-09-23T04:35:54.183Z,23.63
2018-09-23T04:38:23.695Z,20.90
2018-09-23T04:40:52.814Z,24.83
2018-09-23T04:43:21.857Z,24.20
2018-09-23T04:45:51.372Z,21.63
2018-09-23T04:48:20.431Z,20.30
2018-09-23T04:50:49.510Z,19.17
2018-09-23T04:53:18.444Z,22.10
2018-09-23T04:55:47.451Z,23.40
2018-09-23T04:58:16.585Z,20.53
2018-09-23T05:00:46.256Z,23.13
2018-09-23T05:03:15.443Z,21.73
2018-09-23T05:05:45.147Z,19.43
2018-09-23T05:08:14.170Z,18.50
2018-09-23T05:10:43.922Z,20.13
2018-09-23T05:13:13.535Z,21.47
2018-09-23T05:15:42.749Z,22.60
2018-09-23T05:18:12.020Z,21.30
2018-09-23T05:20:41.415Z,19.80
2018-09-23T05:23:11.575Z,18.80
2018-09-23T05:25:40.852Z,16.73
2018-09-23T05:28:10.585Z,17.17
2018-09-23T05:30:41.048Z,21.57
2018-09-23T05:33:10.105Z,19.03
2018-09-23T05:35:39.159Z,20.53
2018-09-23T05:38:09.055Z,18.33
2018-09-23T05:40:38.099Z,16.90
2018-09-23T05:43:07.078Z,20.07
2018-09-23T05:45:37.207Z,23.17
2018-09-23T05:48:06.454Z,18.97
2018-09-23T05:50:35.672Z,19.17
2018-09-23T05:53:05.302Z,22.03
2018-09-23T05:55:34.421Z,15.60
2018-09-23T05:58:03.464Z,16.60
2018-09-23T06:00:36.735Z,17.03
2018-09-23T06:03:06.728Z,15.80
2018-09-23T06:05:35.856Z,19.60
2018-09-23T06:08:05.654Z,20.07
2018-09-23T06:10:35.270Z,15.73
2018-09-23T06:13:04.840Z,14.30
2018-09-23T06:15:34.560Z,16.60
2018-09-23T06:18:04.458Z,15.57
2018-09-23T06:20:33.667Z,15.17
2018-09-23T06:23:02.812Z,13.93
2018-09-23T06:25:31.935Z,12.83
2018-09-23T06:28:01.777Z,15.20
2018-09-23T06:30:31.876Z,16.77
2018-09-23T06:33:00.946Z,17.27
2018-09-23T06:35:30.949Z,18.77
2018-09-23T06:38:01.130Z,14.97
2018-09-23T06:40:30.886Z,13.10
2018-09-23T06:42:59.970Z,13.70
2018-09-23T06:45:30.263Z,16.30
2018-09-23T06:47:59.450Z,13.93
2018-09-23T06:50:28.680Z,15.03
2018-09-23T06:52:57.730Z,13.23
2018-09-23T06:55:28.364Z,13.40
2018-09-23T06:57:57.717Z,12.20
2018-09-23T07:00:26.971Z,11.10
2018-09-23T07:02:56.176Z,11.90
2018-09-23T07:05:25.379Z,12.13
2018-09-23T07:07:54.545Z,11.23
2018-09-23T07:10:25.117Z,10.27
2018-09-23T07:12:54.423Z,11.50
2018-09-23T07:15:24.033Z,13.50
2018-09-23T07:17:53.250Z,14.97
2018-09-23T07:20:22.552Z,12.90
2018-09-23T07:22:51.777Z,11.47
2018-09-23T07:25:21.140Z,10.70
2018-09-23T07:27:50.515Z,11.27
2018-09-23T07:30:19.609Z,12.37
2018-09-23T07:32:48.748Z,10.27
2018-09-23T07:35:18.000Z,9.60
2018-09-23T07:37:47.247Z,11.40
2018-09-23T07:40:16.278Z,12.17
2018-09-23T07:42:46.156Z,13.43
2018-09-23T07:45:15.256Z,12.73
2018-09-23T07:47:45.148Z,12.40
2018-09-23T07:50:14.341Z,14.27
2018-09-23T07:52:45.936Z,13.27
2018-09-23T07:55:15.366Z,15.33
2018-09-23T07:57:45.131Z,11.50
2018-09-23T08:00:14.395Z,17.63
2018-09-23T08:02:43.399Z,13.07
2018-09-23T08:05:12.674Z,15.10
2018-09-23T08:07:41.948Z,16.70
2018-09-23T08:10:11.661Z,13.60
2018-09-23T08:12:40.950Z,15.80
2018-09-23T08:15:09.974Z,15.73
2018-09-23T08:17:40.232Z,17.40
2018-09-23T08:20:10.328Z,13.73
2018-09-23T08:22:39.570Z,81.90
2018-09-23T08:25:08.852Z,51.90
2018-09-23T08:27:38.399Z,16.13
2018-09-23T08:30:08.157Z,14.27
2018-09-23T08:32:37.280Z,11.57
2018-09-23T08:35:06.360Z,13.57
2018-09-23T08:37:35.399Z,14.93
2018-09-23T08:40:04.506Z,14.83
2018-09-23T08:42:33.587Z,11.80
2018-09-23T08:45:02.787Z,11.50
2018-09-23T08:47:31.942Z,14.23
2018-09-23T08:50:00.992Z,12.77
2018-09-23T08:52:30.194Z,15.00
2018-09-23T08:54:59.364Z,12.63
2018-09-23T08:57:29.077Z,15.23
2018-09-23T08:59:58.119Z,11.20
2018-09-23T09:02:28.160Z,13.13
2018-09-23T09:04:57.552Z,12.37
2018-09-23T09:07:26.609Z,15.57
2018-09-23T09:09:55.733Z,15.13
2018-09-23T09:12:25.309Z,15.17
2018-09-23T09:14:54.535Z,12.80
2018-09-23T09:17:23.664Z,12.07
2018-09-23T09:19:52.685Z,12.23
2018-09-23T09:22:22.017Z,11.10
2018-09-23T09:24:51.216Z,12.43
2018-09-23T09:27:20.783Z,11.17
2018-09-23T09:29:49.962Z,11.33
2018-09-23T09:32:19.056Z,10.13
2018-09-23T09:34:48.239Z,9.27
2018-09-23T09:37:17.370Z,7.47
2018-09-23T09:39:46.411Z,9.73
2018-09-23T09:42:15.696Z,8.67
2018-09-23T09:44:44.647Z,9.50
2018-09-23T09:47:13.696Z,13.13
2018-09-23T09:49:42.782Z,10.60
2018-09-23T09:52:11.854Z,10.03
2018-09-23T09:54:40.880Z,10.27
2018-09-23T09:57:09.923Z,12.17
2018-09-23T09:59:39.079Z,9.30
2018-09-23T10:02:08.198Z,9.57
2018-09-23T10:04:37.353Z,8.77
2018-09-23T10:07:07.369Z,10.07
2018-09-23T10:09:37.439Z,8.13
2018-09-23T10:12:06.523Z,10.90
2018-09-23T10:14:35.544Z,7.83
2018-09-23T10:17:04.723Z,10.53
2018-09-23T10:19:34.808Z,7.50
2018-09-23T10:22:04.814Z,8.40
2018-09-23T10:24:33.819Z,7.10
2018-09-23T10:27:03.410Z,8.87
2018-09-23T10:29:32.474Z,11.67
2018-09-23T10:32:01.692Z,21.67
2018-09-23T10:34:30.747Z,10.70
2018-09-23T10:36:59.833Z,8.53
2018-09-23T10:39:28.947Z,9.20
2018-09-23T10:41:58.305Z,10.73
2018-09-23T10:44:27.367Z,12.30
2018-09-23T10:46:56.474Z,8.23
2018-09-23T10:49:25.557Z,10.73
2018-09-23T10:51:54.845Z,8.50
2018-09-23T10:54:24.477Z,8.43
2018-09-23T10:56:54.058Z,11.33
2018-09-23T10:59:23.116Z,9.23
2018-09-23T11:01:52.260Z,6.03
2018-09-23T11:04:21.382Z,26.77
2018-09-23T11:06:50.391Z,4.10
2018-09-23T11:09:19.579Z,7.23
2018-09-23T11:11:48.627Z,6.23
2018-09-23T11:14:18.314Z,9.63
2018-09-23T11:16:47.486Z,9.10
2018-09-23T11:19:16.613Z,6.00
2018-09-23T11:21:45.698Z,34.93
2018-09-23T11:24:14.711Z,27.23
2018-09-23T11:26:43.788Z,9.50
2018-09-23T11:29:12.909Z,7.13
2018-09-23T11:31:42.028Z,7.70
2018-09-23T11:34:11.243Z,7.10
2018-09-23T11:36:40.948Z,15.33
2018-09-23T11:39:11.407Z,11.73
2018-09-23T11:41:41.613Z,10.47
2018-09-23T11:44:10.772Z,9.20
2018-09-23T11:46:40.000Z,8.43
2018-09-23T11:49:09.022Z,12.47
2018-09-23T11:51:38.196Z,9.50
2018-09-23T11:54:07.669Z,9.27
2018-09-23T11:56:37.404Z,10.77
2018-09-23T11:59:06.582Z,12.67
2018-09-23T12:01:35.656Z,8.87
2018-09-23T12:04:05.336Z,11.87
2018-09-23T12:06:34.368Z,10.77
2018-09-23T12:09:03.678Z,20.70
2018-09-23T12:11:33.653Z,14.17
2018-09-23T12:14:02.660Z,12.83
2018-09-23T12:16:31.737Z,13.27
2018-09-23T12:19:00.815Z,14.37
2018-09-23T12:21:29.918Z,14.10
2018-09-23T12:23:59.559Z,12.33
2018-09-23T12:26:28.673Z,15.10
2018-09-23T12:28:58.319Z,14.53
2018-09-23T12:31:27.540Z,14.60
2018-09-23T12:33:56.497Z,13.47
2018-09-23T12:36:25.617Z,16.43
2018-09-23T12:38:54.594Z,15.43
2018-09-23T12:41:23.673Z,14.60
2018-09-23T12:43:52.710Z,13.83
2018-09-23T12:46:21.744Z,13.03
2018-09-23T12:48:50.916Z,15.47
2018-09-23T12:51:19.952Z,19.33
2018-09-23T12:53:49.002Z,15.97
2018-09-23T12:56:18.003Z,15.10
2018-09-23T12:58:47.114Z,17.30
2018-09-23T13:01:16.216Z,19.77
2018-09-23T13:03:45.428Z,16.97
2018-09-23T13:06:14.451Z,16.30
2018-09-23T13:08:43.580Z,15.80
2018-09-23T13:11:13.532Z,17.20
2018-09-23T13:13:42.592Z,17.27
2018-09-23T13:16:11.895Z,14.63
2018-09-23T13:18:41.060Z,17.87
2018-09-23T13:21:10.178Z,16.63
2018-09-23T13:23:39.217Z,19.00
2018-09-23T13:26:08.275Z,17.03
2018-09-23T13:28:38.530Z,20.03
2018-09-23T13:31:07.742Z,16.87
2018-09-23T13:33:36.863Z,17.20
2018-09-23T13:36:05.941Z,17.07
2018-09-23T13:38:35.025Z,19.33
2018-09-23T13:41:04.200Z,16.40
2018-09-23T13:43:33.234Z,22.03
2018-09-23T13:46:02.290Z,16.37
2018-09-23T13:48:31.356Z,18.67
2018-09-23T13:51:01.076Z,21.57
2018-09-23T13:53:36.730Z,15.73
2018-09-23T13:56:05.747Z,15.33
2018-09-23T13:58:34.772Z,12.70
2018-09-23T14:01:04.452Z,13.83
2018-09-23T14:03:33.543Z,14.00
2018-09-23T14:06:03.387Z,11.83
2018-09-23T14:08:32.444Z,10.60
2018-09-23T14:11:01.481Z,10.80
2018-09-23T14:13:30.471Z,9.97
2018-09-23T14:15:59.821Z,12.63
2018-09-23T14:18:28.888Z,11.97
2018-09-23T14:20:58.056Z,10.37
2018-09-23T14:23:27.129Z,12.90
2018-09-23T14:25:56.423Z,10.63
2018-09-23T14:28:25.759Z,8.90
2018-09-23T14:30:54.850Z,12.43
2018-09-23T14:33:24.157Z,13.67
2018-09-23T14:35:53.404Z,11.23
2018-09-23T14:38:22.587Z,12.90
2018-09-23T14:40:51.793Z,12.33
2018-09-23T14:43:20.972Z,10.70
2018-09-23T14:45:50.609Z,9.87
2018-09-23T14:48:21.959Z,11.77
2018-09-23T14:50:52.225Z,11.40
2018-09-23T14:53:21.278Z,12.07
2018-09-23T14:55:51.175Z,15.20
2018-09-23T14:58:20.256Z,14.47
2018-09-23T15:00:49.338Z,15.60
2018-09-23T15:03:18.908Z,18.83
2018-09-23T15:05:48.071Z,13.27
2018-09-23T15:08:17.244Z,13.20
2018-09-23T15:10:46.325Z,17.27
2018-09-23T15:13:17.324Z,15.87
2018-09-23T15:15:47.908Z,17.83
2018-09-23T15:18:16.985Z,20.03
2018-09-23T15:20:46.640Z,18.17
2018-09-23T15:23:17.100Z,22.83
2018-09-23T15:25:47.037Z,27.40
2018-09-23T15:28:16.185Z,28.23
2018-09-23T15:30:45.297Z,19.20
2018-09-23T15:33:15.402Z,23.97
2018-09-23T15:35:44.753Z,25.77
2018-09-23T15:38:13.888Z,19.17
2018-09-23T15:40:43.004Z,20.93
2018-09-23T15:43:12.310Z,18.37
2018-09-23T15:45:41.403Z,16.27
2018-09-23T15:48:10.927Z,16.40
2018-09-23T15:50:40.218Z,16.80
2018-09-23T15:53:09.963Z,14.47
2018-09-23T15:55:39.002Z,16.60
2018-09-23T15:58:08.460Z,15.73
2018-09-23T16:00:37.440Z,17.43
2018-09-23T16:03:06.847Z,15.73
2018-09-23T16:05:36.325Z,14.30
2018-09-23T16:08:06.052Z,17.23
2018-09-23T16:10:35.128Z,17.53
2018-09-23T16:13:04.217Z,16.20
2018-09-23T16:15:33.304Z,16.73
2018-09-23T16:18:02.627Z,15.53
2018-09-23T16:20:32.005Z,14.13
2018-09-23T16:23:01.534Z,12.63
2018-09-23T16:25:30.618Z,15.97
2018-09-23T16:27:59.717Z,15.00
2018-09-23T16:30:28.966Z,18.13
2018-09-23T16:32:58.083Z,15.13
2018-09-23T16:35:27.126Z,14.07
2018-09-23T16:37:56.100Z,14.33
2018-09-23T16:40:25.176Z,13.57
2018-09-23T16:42:54.338Z,11.43
2018-09-23T16:45:23.455Z,13.20
2018-09-23T16:47:52.605Z,11.20
2018-09-23T16:50:21.655Z,15.13
2018-09-23T16:52:51.624Z,13.60
2018-09-23T16:55:20.903Z,13.17
2018-09-23T16:57:49.923Z,16.80
2018-09-23T17:00:19.387Z,12.63
2018-09-23T17:02:48.382Z,13.67
2018-09-23T17:05:17.827Z,17.47
2018-09-23T17:07:46.903Z,23.77
2018-09-23T17:10:16.026Z,15.40
2018-09-23T17:12:45.160Z,17.77
2018-09-23T17:15:14.186Z,17.27
2018-09-23T17:17:43.151Z,16.97
2018-09-23T17:20:12.212Z,13.37
2018-09-23T17:22:41.515Z,13.60
2018-09-23T17:25:11.509Z,12.63
2018-09-23T17:27:40.623Z,11.57
2018-09-23T17:30:09.702Z,8.07
2018-09-23T17:32:39.308Z,10.27
2018-09-23T17:35:08.479Z,11.60
2018-09-23T17:37:37.705Z,12.13
2018-09-23T17:40:06.658Z,16.67
2018-09-23T17:42:35.787Z,19.97
2018-09-23T17:45:04.993Z,67.07
2018-09-23T17:47:34.007Z,17.93
2018-09-23T17:50:03.258Z,13.63
2018-09-23T17:52:32.261Z,13.90
2018-09-23T17:55:01.350Z,12.40
2018-09-23T17:57:30.483Z,13.13
2018-09-23T17:59:59.573Z,17.93
2018-09-23T18:02:29.133Z,15.47
2018-09-23T18:05:02.123Z,15.77
2018-09-23T18:07:31.323Z,12.50
2018-09-23T18:10:00.561Z,10.67
2018-09-23T18:12:29.775Z,11.83
2018-09-23T18:14:59.096Z,13.00
2018-09-23T18:17:28.321Z,11.13
2018-09-23T18:19:57.433Z,10.83
2018-09-23T18:22:26.445Z,10.53
2018-09-23T18:24:56.144Z,7.40
2018-09-23T18:27:25.229Z,7.37
2018-09-23T18:29:54.279Z,11.57
2018-09-23T18:32:23.287Z,10.70
2018-09-23T18:34:52.263Z,13.17
2018-09-23T18:37:21.359Z,9.33
2018-09-23T18:39:50.395Z,16.43
2018-09-23T18:42:19.449Z,14.60
2018-09-23T18:44:48.675Z,14.47
2018-09-23T18:47:17.672Z,14.03
2018-09-23T18:49:46.709Z,13.90
2018-09-23T18:52:15.832Z,15.83
2018-09-23T18:54:50.339Z,14.27
2018-09-23T18:57:19.326Z,12.30
2018-09-23T18:59:49.019Z,13.53
2018-09-23T19:02:18.446Z,12.97
2018-09-23T19:04:47.438Z,11.20
2018-09-23T19:07:17.156Z,11.03
2018-09-23T19:09:46.246Z,6.57
2018-09-23T19:12:15.492Z,10.73
2018-09-23T19:14:44.680Z,8.33
2018-09-23T19:17:13.664Z,11.87
2018-09-23T19:19:47.989Z,12.53
2018-09-23T19:22:22.569Z,16.33
2018-09-23T19:24:51.791Z,9.70
2018-09-23T19:27:20.910Z,13.50
2018-09-23T19:29:49.975Z,15.17
2018-09-23T19:32:19.416Z,14.47
2018-09-23T19:34:50.379Z,13.03
2018-09-23T19:37:19.952Z,15.73
2018-09-23T19:39:49.749Z,14.37
2018-09-23T19:42:18.861Z,19.20
2018-09-23T19:44:48.064Z,20.37
2018-09-23T19:47:17.223Z,27.03
2018-09-23T19:49:47.185Z,22.00
2018-09-23T19:52:16.195Z,29.03
2018-09-23T19:54:46.002Z,26.93
2018-09-23T19:57:15.173Z,29.47
2018-09-23T19:59:44.274Z,26.90
2018-09-23T20:02:13.360Z,31.60
2018-09-23T20:04:42.352Z,37.57
2018-09-23T20:07:11.402Z,34.43
2018-09-23T20:09:41.382Z,35.90
2018-09-23T20:12:12.985Z,32.13
2018-09-23T20:14:42.481Z,29.20
2018-09-23T20:17:11.513Z,30.47
2018-09-23T20:19:40.624Z,32.13
2018-09-23T20:22:11.103Z,31.83
2018-09-23T20:24:40.133Z,30.73
2018-09-23T20:27:09.153Z,30.33
2018-09-23T20:29:38.224Z,29.57
2018-09-23T20:32:07.251Z,29.67
2018-09-23T20:34:36.374Z,33.30
2018-09-23T20:37:06.086Z,28.90
2018-09-23T20:39:35.181Z,24.97
2018-09-23T20:42:04.153Z,27.27
2018-09-23T20:44:33.179Z,21.50
2018-09-23T20:47:03.150Z,25.03
2018-09-23T20:49:32.203Z,23.93
2018-09-23T20:52:01.192Z,27.10
2018-09-23T20:54:30.316Z,25.37
2018-09-23T20:56:59.263Z,24.37
2018-09-23T20:59:28.282Z,21.63
2018-09-23T21:01:57.425Z,22.17
2018-09-23T21:04:26.437Z,22.10
2018-09-23T21:06:55.487Z,17.77
2018-09-23T21:09:24.427Z,20.97
2018-09-23T21:11:53.406Z,18.37
2018-09-23T21:14:22.399Z,17.83
2018-09-23T21:16:51.479Z,21.50
2018-09-23T21:19:21.015Z,19.33
2018-09-23T21:21:50.056Z,19.07
2018-09-23T21:24:19.012Z,20.87
2018-09-23T21:26:47.985Z,21.43
2018-09-23T21:29:17.466Z,16.17
2018-09-23T21:31:46.416Z,14.47
2018-09-23T21:34:15.512Z,24.73
2018-09-23T21:36:44.471Z,18.03
2018-09-23T21:39:13.398Z,13.40
2018-09-23T21:41:42.402Z,11.20
2018-09-23T21:44:11.378Z,20.87
2018-09-23T21:46:40.467Z,16.30
2018-09-23T21:49:09.542Z,13.07
2018-09-23T21:51:38.511Z,17.90
2018-09-23T21:54:07.612Z,12.83
2018-09-23T21:56:36.644Z,11.43
2018-09-23T21:59:05.655Z,12.57
2018-09-23T22:01:34.635Z,7.90
2018-09-23T22:04:03.779Z,12.07
2018-09-23T22:06:32.788Z,7.03
2018-09-23T22:09:01.799Z,17.43
2018-09-23T22:11:30.771Z,13.00
2018-09-23T22:13:59.806Z,8.27
2018-09-23T22:16:28.817Z,10.30
2018-09-23T22:18:57.802Z,11.43
2018-09-23T22:21:26.871Z,13.43
2018-09-23T22:23:55.814Z,12.20
2018-09-23T22:26:24.851Z,9.23
2018-09-23T22:28:53.786Z,7.97
2018-09-23T22:31:22.747Z,6.27
2018-09-23T22:33:51.796Z,8.50
2018-09-23T22:36:20.759Z,11.10
2018-09-23T22:38:49.696Z,13.90
2018-09-23T22:41:18.669Z,12.20
2018-09-23T22:43:47.599Z,9.30
2018-09-23T22:46:16.670Z,10.80
2018-09-23T22:48:45.703Z,8.80
2018-09-23T22:51:14.774Z,12.60
2018-09-23T22:53:43.758Z,9.33
2018-09-23T22:56:12.727Z,5.73
2018-09-23T22:58:41.852Z,6.33
2018-09-23T23:01:10.805Z,11.07
2018-09-23T23:03:39.884Z,9.83
2018-09-23T23:06:08.943Z,12.17
2018-09-23T23:08:37.914Z,11.93
2018-09-23T23:11:06.962Z,10.10
2018-09-23T23:13:35.935Z,10.13
2018-09-23T23:16:04.923Z,10.70
2018-09-23T23:18:34.607Z,14.73
2018-09-23T23:21:03.546Z,12.53
2018-09-23T23:23:32.527Z,10.93
2018-09-23T23:26:01.544Z,6.50
2018-09-23T23:28:30.533Z,9.60
2018-09-23T23:30:59.478Z,9.70
2018-09-23T23:33:28.428Z,10.53
2018-09-23T23:35:57.419Z,12.80
2018-09-23T23:38:26.381Z,10.77
2018-09-23T23:40:55.326Z,8.90
2018-09-23T23:43:24.383Z,13.23
2018-09-23T23:45:53.932Z,8.13
2018-09-23T23:48:22.859Z,6.57
2018-09-23T23:50:51.819Z,11.97
2018-09-23T23:53:20.858Z,8.40
2018-09-23T23:55:49.866Z,9.63
